sensor_id;sensor_type;location;lat;lon;timestamp;P1;durP1;ratioP1;P2;durP2;ratioP2
18280;SDS011;9266;51.132;17.062;2022-10-22T00:01:25;22.43;;;16.30;;
18280;SDS011;9266;51.132;17.062;2022-10-22T00:03:52;22.03;;;16.47;;
18280;SDS011;9266;51.132;17.062;2022-10-22T00:06:19;19.93;;;16.03;;
18280;SDS011;9266;51.132;17.062;2022-10-22T00:08:48;21.53;;;16.70;;
18280;SDS011;9266;51.132;17.062;2022-10-22T00:11:16;24.23;;;16.13;;
18280;SDS011;9266;51.132;17.062;2022-10-22T00:13:44;16.97;;;14.07;;
18280;SDS011;9266;51.132;17.062;2022-10-22T00:16:12;46.40;;;28.20;;
18280;SDS011;9266;51.132;17.062;2022-10-22T00:18:39;22.53;;;17.97;;
18280;SDS011;9266;51.132;17.062;2022-10-22T00:21:07;24.23;;;17.10;;
18280;SDS011;9266;51.132;17.062;2022-10-22T00:23:34;22.73;;;17.07;;
18280;SDS011;9266;51.132;17.062;2022-10-22T00:26:03;24.70;;;16.87;;
18280;SDS011;9266;51.132;17.062;2022-10-22T00:28:30;22.67;;;16.97;;
18280;SDS011;9266;51.132;17.062;2022-10-22T00:30:57;23.00;;;16.43;;
18280;SDS011;9266;51.132;17.062;2022-10-22T00:33:25;21.07;;;16.37;;
18280;SDS011;9266;51.132;17.062;2022-10-22T00:35:54;22.60;;;16.60;;
18280;SDS011;9266;51.132;17.062;2022-10-22T00:38:21;21.67;;;16.77;;
18280;SDS011;9266;51.132;17.062;2022-10-22T00:40:48;19.00;;;15.57;;
18280;SDS011;9266;51.132;17.062;2022-10-22T00:43:17;20.97;;;16.37;;
18280;SDS011;9266;51.132;17.062;2022-10-22T00:45:45;18.77;;;15.40;;
18280;SDS011;9266;51.132;17.062;2022-10-22T00:48:13;20.10;;;15.80;;
18280;SDS011;9266;51.132;17.062;2022-10-22T00:50:44;18.77;;;14.93;;
18280;SDS011;9266;51.132;17.062;2022-10-22T00:53:16;18.00;;;15.27;;
18280;SDS011;9266;51.132;17.062;2022-10-22T00:55:46;20.27;;;15.10;;
18280;SDS011;9266;51.132;17.062;2022-10-22T00:58:14;19.60;;;15.30;;
18280;SDS011;9266;51.132;17.062;2022-10-22T01:00:43;19.87;;;14.90;;
18280;SDS011;9266;51.132;17.062;2022-10-22T01:03:10;20.00;;;15.87;;
18280;SDS011;9266;51.132;17.062;2022-10-22T01:05:40;21.47;;;15.60;;
18280;SDS011;9266;51.132;17.062;2022-10-22T01:08:13;23.50;;;16.30;;
18280;SDS011;9266;51.132;17.062;2022-10-22T01:10:51;17.37;;;14.97;;
18280;SDS011;9266;51.132;17.062;2022-10-22T01:13:29;21.07;;;15.30;;
18280;SDS011;9266;51.132;17.062;2022-10-22T01:16:06;19.27;;;15.00;;
18280;SDS011;9266;51.132;17.062;2022-10-22T01:18:38;19.60;;;15.23;;
18280;SDS011;9266;51.132;17.062;2022-10-22T01:21:14;19.20;;;15.20;;
18280;SDS011;9266;51.132;17.062;2022-10-22T01:24:07;22.30;;;15.70;;
18280;SDS011;9266;51.132;17.062;2022-10-22T01:27:09;27.37;;;16.73;;
18280;SDS011;9266;51.132;17.062;2022-10-22T01:29:46;19.37;;;15.57;;
18280;SDS011;9266;51.132;17.062;2022-10-22T01:32:17;18.93;;;14.57;;
18280;SDS011;9266;51.132;17.062;2022-10-22T01:34:47;17.70;;;14.67;;
18280;SDS011;9266;51.132;17.062;2022-10-22T01:37:17;18.40;;;14.80;;
18280;SDS011;9266;51.132;17.062;2022-10-22T01:39:47;19.00;;;14.77;;
18280;SDS011;9266;51.132;17.062;2022-10-22T01:42:16;20.40;;;14.27;;
18280;SDS011;9266;51.132;17.062;2022-10-22T01:44:43;17.43;;;13.57;;
18280;SDS011;9266;51.132;17.062;2022-10-22T01:47:19;19.30;;;14.40;;
18280;SDS011;9266;51.132;17.062;2022-10-22T01:49:53;17.23;;;13.97;;
18280;SDS011;9266;51.132;17.062;2022-10-22T01:52:47;20.40;;;13.70;;
18280;SDS011;9266;51.132;17.062;2022-10-22T01:55:25;27.10;;;13.63;;
18280;SDS011;9266;51.132;17.062;2022-10-22T01:57:58;16.27;;;13.60;;
18280;SDS011;9266;51.132;17.062;2022-10-22T02:00:34;17.27;;;13.83;;
18280;SDS011;9266;51.132;17.062;2022-10-22T02:03:06;18.70;;;13.33;;
18280;SDS011;9266;51.132;17.062;2022-10-22T02:05:38;20.03;;;14.73;;
18280;SDS011;9266;51.132;17.062;2022-10-22T02:08:12;18.17;;;14.07;;
18280;SDS011;9266;51.132;17.062;2022-10-22T02:10:43;18.10;;;14.03;;
18280;SDS011;9266;51.132;17.062;2022-10-22T02:13:12;17.53;;;14.17;;
18280;SDS011;9266;51.132;17.062;2022-10-22T02:15:40;17.93;;;14.00;;
18280;SDS011;9266;51.132;17.062;2022-10-22T02:18:11;18.77;;;15.17;;
18280;SDS011;9266;51.132;17.062;2022-10-22T02:20:39;17.43;;;13.77;;
18280;SDS011;9266;51.132;17.062;2022-10-22T02:23:07;18.53;;;14.67;;
18280;SDS011;9266;51.132;17.062;2022-10-22T02:25:36;17.60;;;14.90;;
18280;SDS011;9266;51.132;17.062;2022-10-22T02:28:06;18.67;;;15.33;;
18280;SDS011;9266;51.132;17.062;2022-10-22T02:30:39;19.33;;;15.00;;
18280;SDS011;9266;51.132;17.062;2022-10-22T02:33:12;20.33;;;15.50;;
18280;SDS011;9266;51.132;17.062;2022-10-22T02:35:41;18.67;;;15.30;;
18280;SDS011;9266;51.132;17.062;2022-10-22T02:38:09;24.20;;;15.67;;
18280;SDS011;9266;51.132;17.062;2022-10-22T02:40:38;20.67;;;15.23;;
18280;SDS011;9266;51.132;17.062;2022-10-22T02:43:05;17.97;;;14.83;;
18280;SDS011;9266;51.132;17.062;2022-10-22T02:45:33;18.33;;;14.70;;
18280;SDS011;9266;51.132;17.062;2022-10-22T02:48:00;20.03;;;15.87;;
18280;SDS011;9266;51.132;17.062;2022-10-22T02:50:29;19.30;;;15.07;;
18280;SDS011;9266;51.132;17.062;2022-10-22T02:52:56;23.00;;;16.30;;
18280;SDS011;9266;51.132;17.062;2022-10-22T02:55:23;18.77;;;14.77;;
18280;SDS011;9266;51.132;17.062;2022-10-22T02:57:51;20.53;;;15.60;;
18280;SDS011;9266;51.132;17.062;2022-10-22T03:00:18;19.87;;;15.80;;
18280;SDS011;9266;51.132;17.062;2022-10-22T03:02:46;20.80;;;15.67;;
18280;SDS011;9266;51.132;17.062;2022-10-22T03:05:13;18.73;;;14.73;;
18280;SDS011;9266;51.132;17.062;2022-10-22T03:07:41;20.90;;;15.90;;
18280;SDS011;9266;51.132;17.062;2022-10-22T03:10:08;17.63;;;14.13;;
18280;SDS011;9266;51.132;17.062;2022-10-22T03:12:35;26.10;;;15.67;;
18280;SDS011;9266;51.132;17.062;2022-10-22T03:15:04;22.60;;;15.77;;
18280;SDS011;9266;51.132;17.062;2022-10-22T03:17:32;19.20;;;15.73;;
18280;SDS011;9266;51.132;17.062;2022-10-22T03:19:59;21.87;;;15.43;;
18280;SDS011;9266;51.132;17.062;2022-10-22T03:22:27;25.20;;;19.43;;
18280;SDS011;9266;51.132;17.062;2022-10-22T03:24:57;24.57;;;19.20;;
18280;SDS011;9266;51.132;17.062;2022-10-22T03:27:25;24.50;;;19.27;;
18280;SDS011;9266;51.132;17.062;2022-10-22T03:29:53;24.30;;;17.40;;
18280;SDS011;9266;51.132;17.062;2022-10-22T03:32:22;22.70;;;16.53;;
18280;SDS011;9266;51.132;17.062;2022-10-22T03:34:49;23.07;;;15.70;;
18280;SDS011;9266;51.132;17.062;2022-10-22T03:37:16;21.00;;;16.50;;
18280;SDS011;9266;51.132;17.062;2022-10-22T03:39:43;19.03;;;16.20;;
18280;SDS011;9266;51.132;17.062;2022-10-22T03:42:12;22.37;;;17.03;;
18280;SDS011;9266;51.132;17.062;2022-10-22T03:44:40;21.43;;;15.73;;
18280;SDS011;9266;51.132;17.062;2022-10-22T03:47:08;22.77;;;16.20;;
18280;SDS011;9266;51.132;17.062;2022-10-22T03:49:35;23.47;;;16.30;;
18280;SDS011;9266;51.132;17.062;2022-10-22T03:52:04;22.97;;;15.23;;
18280;SDS011;9266;51.132;17.062;2022-10-22T03:54:31;20.87;;;16.10;;
18280;SDS011;9266;51.132;17.062;2022-10-22T03:56:59;23.23;;;16.50;;
18280;SDS011;9266;51.132;17.062;2022-10-22T03:59:27;23.23;;;15.73;;
18280;SDS011;9266;51.132;17.062;2022-10-22T04:01:55;20.27;;;14.53;;
18280;SDS011;9266;51.132;17.062;2022-10-22T04:04:22;21.00;;;15.93;;
18280;SDS011;9266;51.132;17.062;2022-10-22T04:06:49;20.87;;;16.90;;
18280;SDS011;9266;51.132;17.062;2022-10-22T04:09:17;22.27;;;15.57;;
18280;SDS011;9266;51.132;17.062;2022-10-22T04:11:44;21.83;;;16.07;;
18280;SDS011;9266;51.132;17.062;2022-10-22T04:14:11;23.57;;;16.80;;
18280;SDS011;9266;51.132;17.062;2022-10-22T04:16:40;20.53;;;16.20;;
18280;SDS011;9266;51.132;17.062;2022-10-22T04:19:07;20.90;;;16.27;;
18280;SDS011;9266;51.132;17.062;2022-10-22T04:21:34;20.50;;;16.33;;
18280;SDS011;9266;51.132;17.062;2022-10-22T04:24:01;20.73;;;16.97;;
18280;SDS011;9266;51.132;17.062;2022-10-22T04:26:29;22.63;;;16.83;;
18280;SDS011;9266;51.132;17.062;2022-10-22T04:28:56;21.37;;;15.83;;
18280;SDS011;9266;51.132;17.062;2022-10-22T04:31:23;19.70;;;14.70;;
18280;SDS011;9266;51.132;17.062;2022-10-22T04:33:53;22.67;;;15.03;;
18280;SDS011;9266;51.132;17.062;2022-10-22T04:36:21;18.23;;;14.60;;
18280;SDS011;9266;51.132;17.062;2022-10-22T04:38:51;19.23;;;15.33;;
18280;SDS011;9266;51.132;17.062;2022-10-22T04:41:20;17.23;;;14.40;;
18280;SDS011;9266;51.132;17.062;2022-10-22T04:43:48;18.27;;;13.80;;
18280;SDS011;9266;51.132;17.062;2022-10-22T04:46:16;17.73;;;14.90;;
18280;SDS011;9266;51.132;17.062;2022-10-22T04:48:44;16.23;;;13.43;;
18280;SDS011;9266;51.132;17.062;2022-10-22T04:51:13;20.23;;;14.03;;
18280;SDS011;9266;51.132;17.062;2022-10-22T04:53:41;20.80;;;14.63;;
18280;SDS011;9266;51.132;17.062;2022-10-22T04:56:09;21.37;;;15.00;;
18280;SDS011;9266;51.132;17.062;2022-10-22T04:58:40;19.93;;;14.17;;
18280;SDS011;9266;51.132;17.062;2022-10-22T05:01:09;20.03;;;15.70;;
18280;SDS011;9266;51.132;17.062;2022-10-22T05:03:37;22.00;;;15.37;;
18280;SDS011;9266;51.132;17.062;2022-10-22T05:06:05;19.30;;;15.33;;
18280;SDS011;9266;51.132;17.062;2022-10-22T05:08:33;19.23;;;15.33;;
18280;SDS011;9266;51.132;17.062;2022-10-22T05:11:08;19.73;;;15.40;;
18280;SDS011;9266;51.132;17.062;2022-10-22T05:13:36;19.40;;;15.27;;
18280;SDS011;9266;51.132;17.062;2022-10-22T05:16:04;20.03;;;15.60;;
18280;SDS011;9266;51.132;17.062;2022-10-22T05:18:32;21.23;;;15.63;;
18280;SDS011;9266;51.132;17.062;2022-10-22T05:21:00;20.33;;;15.73;;
18280;SDS011;9266;51.132;17.062;2022-10-22T05:23:28;17.73;;;15.10;;
18280;SDS011;9266;51.132;17.062;2022-10-22T05:25:56;17.17;;;14.43;;
18280;SDS011;9266;51.132;17.062;2022-10-22T05:28:26;18.67;;;14.60;;
18280;SDS011;9266;51.132;17.062;2022-10-22T05:30:54;19.27;;;14.53;;
18280;SDS011;9266;51.132;17.062;2022-10-22T05:33:21;21.43;;;16.43;;
18280;SDS011;9266;51.132;17.062;2022-10-22T05:35:49;20.20;;;16.17;;
18280;SDS011;9266;51.132;17.062;2022-10-22T05:38:17;21.47;;;17.37;;
18280;SDS011;9266;51.132;17.062;2022-10-22T05:40:44;20.03;;;16.50;;
18280;SDS011;9266;51.132;17.062;2022-10-22T05:43:13;23.37;;;15.87;;
18280;SDS011;9266;51.132;17.062;2022-10-22T05:45:40;21.47;;;16.17;;
18280;SDS011;9266;51.132;17.062;2022-10-22T05:48:08;23.23;;;16.30;;
18280;SDS011;9266;51.132;17.062;2022-10-22T05:50:36;20.07;;;15.87;;
18280;SDS011;9266;51.132;17.062;2022-10-22T05:53:03;20.93;;;16.97;;
18280;SDS011;9266;51.132;17.062;2022-10-22T05:55:34;22.13;;;15.77;;
18280;SDS011;9266;51.132;17.062;2022-10-22T05:58:03;21.87;;;15.93;;
18280;SDS011;9266;51.132;17.062;2022-10-22T06:00:31;24.97;;;15.90;;
18280;SDS011;9266;51.132;17.062;2022-10-22T06:02:59;25.23;;;16.77;;
18280;SDS011;9266;51.132;17.062;2022-10-22T06:05:26;18.37;;;15.60;;
18280;SDS011;9266;51.132;17.062;2022-10-22T06:07:53;18.27;;;14.40;;
18280;SDS011;9266;51.132;17.062;2022-10-22T06:10:21;18.60;;;13.97;;
18280;SDS011;9266;51.132;17.062;2022-10-22T06:12:48;20.30;;;15.17;;
18280;SDS011;9266;51.132;17.062;2022-10-22T06:15:16;22.13;;;14.80;;
18280;SDS011;9266;51.132;17.062;2022-10-22T06:17:45;19.60;;;14.70;;
18280;SDS011;9266;51.132;17.062;2022-10-22T06:20:13;20.23;;;14.83;;
18280;SDS011;9266;51.132;17.062;2022-10-22T06:22:41;21.90;;;16.17;;
18280;SDS011;9266;51.132;17.062;2022-10-22T06:25:08;24.80;;;15.47;;
18280;SDS011;9266;51.132;17.062;2022-10-22T06:27:36;21.07;;;15.53;;
18280;SDS011;9266;51.132;17.062;2022-10-22T06:30:04;19.80;;;14.47;;
18280;SDS011;9266;51.132;17.062;2022-10-22T06:32:32;22.17;;;16.27;;
18280;SDS011;9266;51.132;17.062;2022-10-22T06:35:01;21.03;;;14.93;;
18280;SDS011;9266;51.132;17.062;2022-10-22T06:37:28;19.80;;;15.43;;
18280;SDS011;9266;51.132;17.062;2022-10-22T06:39:55;18.10;;;14.83;;
18280;SDS011;9266;51.132;17.062;2022-10-22T06:42:22;21.40;;;14.37;;
18280;SDS011;9266;51.132;17.062;2022-10-22T06:44:50;17.90;;;14.47;;
18280;SDS011;9266;51.132;17.062;2022-10-22T06:47:17;24.03;;;15.60;;
18280;SDS011;9266;51.132;17.062;2022-10-22T06:49:44;22.33;;;15.83;;
18280;SDS011;9266;51.132;17.062;2022-10-22T06:52:13;18.47;;;14.93;;
18280;SDS011;9266;51.132;17.062;2022-10-22T06:54:40;22.13;;;15.50;;
18280;SDS011;9266;51.132;17.062;2022-10-22T06:57:08;24.17;;;17.83;;
18280;SDS011;9266;51.132;17.062;2022-10-22T06:59:35;21.53;;;16.33;;
18280;SDS011;9266;51.132;17.062;2022-10-22T07:02:03;21.27;;;15.90;;
18280;SDS011;9266;51.132;17.062;2022-10-22T07:04:30;21.80;;;15.67;;
18280;SDS011;9266;51.132;17.062;2022-10-22T07:06:57;24.10;;;16.40;;
18280;SDS011;9266;51.132;17.062;2022-10-22T07:09:26;26.93;;;16.90;;
18280;SDS011;9266;51.132;17.062;2022-10-22T07:11:53;21.67;;;16.53;;
18280;SDS011;9266;51.132;17.062;2022-10-22T07:14:20;23.67;;;16.90;;
18280;SDS011;9266;51.132;17.062;2022-10-22T07:16:48;24.27;;;18.07;;
18280;SDS011;9266;51.132;17.062;2022-10-22T07:19:15;24.40;;;16.80;;
18280;SDS011;9266;51.132;17.062;2022-10-22T07:21:42;27.77;;;18.17;;
18280;SDS011;9266;51.132;17.062;2022-10-22T07:24:10;25.40;;;17.83;;
18280;SDS011;9266;51.132;17.062;2022-10-22T07:26:38;21.43;;;17.20;;
18280;SDS011;9266;51.132;17.062;2022-10-22T07:29:06;24.33;;;18.17;;
18280;SDS011;9266;51.132;17.062;2022-10-22T07:31:34;24.73;;;17.83;;
18280;SDS011;9266;51.132;17.062;2022-10-22T07:34:01;24.37;;;18.40;;
18280;SDS011;9266;51.132;17.062;2022-10-22T07:36:28;24.07;;;18.63;;
18280;SDS011;9266;51.132;17.062;2022-10-22T07:38:56;21.87;;;18.43;;
18280;SDS011;9266;51.132;17.062;2022-10-22T07:41:24;21.93;;;17.43;;
18280;SDS011;9266;51.132;17.062;2022-10-22T07:43:53;22.47;;;17.70;;
18280;SDS011;9266;51.132;17.062;2022-10-22T07:46:21;21.07;;;17.40;;
18280;SDS011;9266;51.132;17.062;2022-10-22T07:48:48;22.60;;;17.07;;
18280;SDS011;9266;51.132;17.062;2022-10-22T07:51:16;24.57;;;17.10;;
18280;SDS011;9266;51.132;17.062;2022-10-22T07:53:43;22.20;;;16.63;;
18280;SDS011;9266;51.132;17.062;2022-10-22T07:56:10;26.53;;;17.23;;
18280;SDS011;9266;51.132;17.062;2022-10-22T07:58:38;27.73;;;19.23;;
18280;SDS011;9266;51.132;17.062;2022-10-22T08:01:07;22.77;;;17.33;;
18280;SDS011;9266;51.132;17.062;2022-10-22T08:03:34;21.13;;;16.63;;
18280;SDS011;9266;51.132;17.062;2022-10-22T08:06:02;20.97;;;16.27;;
18280;SDS011;9266;51.132;17.062;2022-10-22T08:08:29;20.47;;;15.73;;
18280;SDS011;9266;51.132;17.062;2022-10-22T08:10:58;19.50;;;15.63;;
18280;SDS011;9266;51.132;17.062;2022-10-22T08:13:25;17.03;;;15.23;;
18280;SDS011;9266;51.132;17.062;2022-10-22T08:15:54;19.57;;;15.10;;
18280;SDS011;9266;51.132;17.062;2022-10-22T08:18:23;21.83;;;15.07;;
18280;SDS011;9266;51.132;17.062;2022-10-22T08:20:51;19.10;;;15.87;;
18280;SDS011;9266;51.132;17.062;2022-10-22T08:23:18;21.20;;;15.63;;
18280;SDS011;9266;51.132;17.062;2022-10-22T08:25:45;20.33;;;16.00;;
18280;SDS011;9266;51.132;17.062;2022-10-22T08:28:13;24.10;;;16.87;;
18280;SDS011;9266;51.132;17.062;2022-10-22T08:30:40;19.40;;;15.73;;
18280;SDS011;9266;51.132;17.062;2022-10-22T08:33:09;23.17;;;16.80;;
18280;SDS011;9266;51.132;17.062;2022-10-22T08:35:37;27.43;;;16.43;;
18280;SDS011;9266;51.132;17.062;2022-10-22T08:38:05;20.33;;;14.93;;
18280;SDS011;9266;51.132;17.062;2022-10-22T08:40:34;19.67;;;14.63;;
18280;SDS011;9266;51.132;17.062;2022-10-22T08:43:06;24.73;;;20.47;;
18280;SDS011;9266;51.132;17.062;2022-10-22T08:45:38;22.50;;;16.17;;
18280;SDS011;9266;51.132;17.062;2022-10-22T08:48:08;24.30;;;16.67;;
18280;SDS011;9266;51.132;17.062;2022-10-22T08:50:42;20.53;;;16.10;;
18280;SDS011;9266;51.132;17.062;2022-10-22T08:53:13;22.20;;;16.80;;
18280;SDS011;9266;51.132;17.062;2022-10-22T08:55:41;19.27;;;15.93;;
18280;SDS011;9266;51.132;17.062;2022-10-22T08:58:11;20.57;;;15.53;;
18280;SDS011;9266;51.132;17.062;2022-10-22T09:00:43;22.97;;;17.53;;
18280;SDS011;9266;51.132;17.062;2022-10-22T09:03:19;22.30;;;16.70;;
18280;SDS011;9266;51.132;17.062;2022-10-22T09:05:53;21.23;;;17.60;;
18280;SDS011;9266;51.132;17.062;2022-10-22T09:08:28;24.23;;;16.27;;
18280;SDS011;9266;51.132;17.062;2022-10-22T09:10:56;23.37;;;17.67;;
18280;SDS011;9266;51.132;17.062;2022-10-22T09:13:24;23.03;;;17.60;;
18280;SDS011;9266;51.132;17.062;2022-10-22T09:15:53;24.90;;;18.97;;
18280;SDS011;9266;51.132;17.062;2022-10-22T09:18:23;23.00;;;17.47;;
18280;SDS011;9266;51.132;17.062;2022-10-22T09:20:57;27.93;;;19.13;;
18280;SDS011;9266;51.132;17.062;2022-10-22T09:23:30;27.20;;;17.90;;
18280;SDS011;9266;51.132;17.062;2022-10-22T09:25:59;29.67;;;18.77;;
18280;SDS011;9266;51.132;17.062;2022-10-22T09:28:26;23.57;;;17.00;;
18280;SDS011;9266;51.132;17.062;2022-10-22T09:30:53;22.77;;;17.50;;
18280;SDS011;9266;51.132;17.062;2022-10-22T09:33:23;24.90;;;17.73;;
18280;SDS011;9266;51.132;17.062;2022-10-22T09:35:52;24.07;;;18.13;;
18280;SDS011;9266;51.132;17.062;2022-10-22T09:38:22;29.37;;;19.30;;
18280;SDS011;9266;51.132;17.062;2022-10-22T09:40:51;28.43;;;18.87;;
18280;SDS011;9266;51.132;17.062;2022-10-22T09:43:19;27.63;;;18.90;;
18280;SDS011;9266;51.132;17.062;2022-10-22T09:45:46;32.83;;;21.67;;
18280;SDS011;9266;51.132;17.062;2022-10-22T09:48:17;31.30;;;22.20;;
18280;SDS011;9266;51.132;17.062;2022-10-22T09:50:46;30.03;;;22.33;;
18280;SDS011;9266;51.132;17.062;2022-10-22T09:53:17;35.67;;;24.40;;
18280;SDS011;9266;51.132;17.062;2022-10-22T09:55:50;30.10;;;23.43;;
18280;SDS011;9266;51.132;17.062;2022-10-22T09:58:18;27.73;;;19.87;;
18280;SDS011;9266;51.132;17.062;2022-10-22T10:00:52;31.17;;;20.47;;
18280;SDS011;9266;51.132;17.062;2022-10-22T10:03:20;27.90;;;18.20;;
18280;SDS011;9266;51.132;17.062;2022-10-22T10:05:49;30.17;;;19.67;;
18280;SDS011;9266;51.132;17.062;2022-10-22T10:08:17;31.57;;;18.50;;
18280;SDS011;9266;51.132;17.062;2022-10-22T10:10:46;32.03;;;19.70;;
18280;SDS011;9266;51.132;17.062;2022-10-22T10:13:19;30.03;;;18.57;;
18280;SDS011;9266;51.132;17.062;2022-10-22T10:16:01;32.47;;;19.80;;
18280;SDS011;9266;51.132;17.062;2022-10-22T10:18:36;29.20;;;18.03;;
18280;SDS011;9266;51.132;17.062;2022-10-22T10:21:16;25.83;;;18.77;;
18280;SDS011;9266;51.132;17.062;2022-10-22T10:23:52;28.70;;;18.87;;
18280;SDS011;9266;51.132;17.062;2022-10-22T10:26:30;29.17;;;18.93;;
18280;SDS011;9266;51.132;17.062;2022-10-22T10:29:09;31.33;;;19.63;;
18280;SDS011;9266;51.132;17.062;2022-10-22T10:31:48;27.37;;;18.63;;
18280;SDS011;9266;51.132;17.062;2022-10-22T10:34:22;33.87;;;20.07;;
18280;SDS011;9266;51.132;17.062;2022-10-22T10:36:57;29.73;;;18.93;;
18280;SDS011;9266;51.132;17.062;2022-10-22T10:39:29;32.90;;;20.43;;
18280;SDS011;9266;51.132;17.062;2022-10-22T10:42:03;29.27;;;19.07;;
18280;SDS011;9266;51.132;17.062;2022-10-22T10:44:42;28.50;;;18.87;;
18280;SDS011;9266;51.132;17.062;2022-10-22T10:47:17;36.80;;;21.37;;
18280;SDS011;9266;51.132;17.062;2022-10-22T10:49:46;33.20;;;20.73;;
18280;SDS011;9266;51.132;17.062;2022-10-22T10:52:15;37.97;;;22.23;;
18280;SDS011;9266;51.132;17.062;2022-10-22T10:54:45;35.57;;;22.13;;
18280;SDS011;9266;51.132;17.062;2022-10-22T10:57:18;40.30;;;23.47;;
18280;SDS011;9266;51.132;17.062;2022-10-22T10:59:53;33.13;;;21.63;;
18280;SDS011;9266;51.132;17.062;2022-10-22T11:02:32;39.87;;;23.53;;
18280;SDS011;9266;51.132;17.062;2022-10-22T11:05:11;36.83;;;23.23;;
18280;SDS011;9266;51.132;17.062;2022-10-22T11:07:53;33.63;;;23.13;;
18280;SDS011;9266;51.132;17.062;2022-10-22T11:10:25;34.87;;;22.87;;
18280;SDS011;9266;51.132;17.062;2022-10-22T11:12:54;35.27;;;22.73;;
18280;SDS011;9266;51.132;17.062;2022-10-22T11:15:26;35.37;;;23.83;;
18280;SDS011;9266;51.132;17.062;2022-10-22T11:17:54;40.97;;;23.80;;
18280;SDS011;9266;51.132;17.062;2022-10-22T11:20:27;39.70;;;22.63;;
18280;SDS011;9266;51.132;17.062;2022-10-22T11:23:04;36.20;;;22.87;;
18280;SDS011;9266;51.132;17.062;2022-10-22T11:25:33;33.00;;;21.67;;
18280;SDS011;9266;51.132;17.062;2022-10-22T11:28:04;36.87;;;23.27;;
18280;SDS011;9266;51.132;17.062;2022-10-22T11:30:36;36.07;;;22.77;;
18280;SDS011;9266;51.132;17.062;2022-10-22T11:33:05;35.17;;;21.87;;
18280;SDS011;9266;51.132;17.062;2022-10-22T11:35:36;30.60;;;20.40;;
18280;SDS011;9266;51.132;17.062;2022-10-22T11:38:06;34.97;;;20.37;;
18280;SDS011;9266;51.132;17.062;2022-10-22T11:40:35;33.27;;;21.97;;
18280;SDS011;9266;51.132;17.062;2022-10-22T11:43:03;32.33;;;20.77;;
18280;SDS011;9266;51.132;17.062;2022-10-22T11:45:33;25.27;;;18.90;;
18280;SDS011;9266;51.132;17.062;2022-10-22T11:48:06;28.47;;;20.20;;
18280;SDS011;9266;51.132;17.062;2022-10-22T11:50:45;26.23;;;18.77;;
18280;SDS011;9266;51.132;17.062;2022-10-22T11:53:17;31.50;;;20.13;;
18280;SDS011;9266;51.132;17.062;2022-10-22T11:55:45;30.27;;;19.03;;
18280;SDS011;9266;51.132;17.062;2022-10-22T12:00:55;26.17;;;17.77;;
18280;SDS011;9266;51.132;17.062;2022-10-22T12:03:36;21.70;;;16.53;;
18280;SDS011;9266;51.132;17.062;2022-10-22T12:06:13;24.57;;;16.33;;
18280;SDS011;9266;51.132;17.062;2022-10-22T12:08:45;20.37;;;15.83;;
18280;SDS011;9266;51.132;17.062;2022-10-22T12:11:19;25.80;;;16.40;;
18280;SDS011;9266;51.132;17.062;2022-10-22T12:16:50;17.37;;;13.67;;
18280;SDS011;9266;51.132;17.062;2022-10-22T12:19:25;16.33;;;12.37;;
18280;SDS011;9266;51.132;17.062;2022-10-22T12:21:55;17.20;;;13.93;;
18280;SDS011;9266;51.132;17.062;2022-10-22T12:24:28;16.43;;;12.13;;
18280;SDS011;9266;51.132;17.062;2022-10-22T12:26:56;16.17;;;11.80;;
18280;SDS011;9266;51.132;17.062;2022-10-22T12:29:23;18.90;;;10.43;;
18280;SDS011;9266;51.132;17.062;2022-10-22T12:31:52;15.80;;;11.27;;
18280;SDS011;9266;51.132;17.062;2022-10-22T12:34:21;17.17;;;10.47;;
18280;SDS011;9266;51.132;17.062;2022-10-22T12:36:51;13.47;;;9.17;;
18280;SDS011;9266;51.132;17.062;2022-10-22T12:39:19;12.30;;;8.63;;
18280;SDS011;9266;51.132;17.062;2022-10-22T12:41:47;9.30;;;7.60;;
18280;SDS011;9266;51.132;17.062;2022-10-22T12:44:15;12.90;;;8.37;;
18280;SDS011;9266;51.132;17.062;2022-10-22T12:46:43;7.93;;;6.73;;
18280;SDS011;9266;51.132;17.062;2022-10-22T12:49:14;6.73;;;6.03;;
18280;SDS011;9266;51.132;17.062;2022-10-22T12:51:45;6.83;;;6.13;;
18280;SDS011;9266;51.132;17.062;2022-10-22T12:54:17;7.23;;;5.83;;
18280;SDS011;9266;51.132;17.062;2022-10-22T12:56:45;7.80;;;5.13;;
18280;SDS011;9266;51.132;17.062;2022-10-22T12:59:15;7.23;;;5.23;;
18280;SDS011;9266;51.132;17.062;2022-10-22T13:01:44;7.67;;;5.67;;
18280;SDS011;9266;51.132;17.062;2022-10-22T13:04:22;6.23;;;5.40;;
18280;SDS011;9266;51.132;17.062;2022-10-22T13:07:12;6.60;;;5.73;;
18280;SDS011;9266;51.132;17.062;2022-10-22T13:09:43;5.87;;;4.90;;
18280;SDS011;9266;51.132;17.062;2022-10-22T13:12:11;8.90;;;5.83;;
18280;SDS011;9266;51.132;17.062;2022-10-22T13:14:41;8.93;;;5.83;;
18280;SDS011;9266;51.132;17.062;2022-10-22T13:17:09;6.67;;;5.63;;
18280;SDS011;9266;51.132;17.062;2022-10-22T13:19:40;6.53;;;5.87;;
18280;SDS011;9266;51.132;17.062;2022-10-22T13:22:30;6.83;;;5.53;;
18280;SDS011;9266;51.132;17.062;2022-10-22T13:25:02;6.47;;;5.83;;
18280;SDS011;9266;51.132;17.062;2022-10-22T13:27:30;7.50;;;6.67;;
18280;SDS011;9266;51.132;17.062;2022-10-22T13:30:00;7.17;;;5.63;;
18280;SDS011;9266;51.132;17.062;2022-10-22T13:32:29;7.47;;;6.03;;
18280;SDS011;9266;51.132;17.062;2022-10-22T13:34:57;8.63;;;6.47;;
18280;SDS011;9266;51.132;17.062;2022-10-22T13:37:25;8.53;;;6.30;;
18280;SDS011;9266;51.132;17.062;2022-10-22T13:39:54;10.03;;;6.40;;
18280;SDS011;9266;51.132;17.062;2022-10-22T13:42:23;7.80;;;7.00;;
18280;SDS011;9266;51.132;17.062;2022-10-22T13:44:50;10.37;;;8.80;;
18280;SDS011;9266;51.132;17.062;2022-10-22T13:47:22;8.90;;;7.63;;
18280;SDS011;9266;51.132;17.062;2022-10-22T13:49:51;9.83;;;7.77;;
18280;SDS011;9266;51.132;17.062;2022-10-22T13:55:11;10.53;;;9.00;;
18280;SDS011;9266;51.132;17.062;2022-10-22T13:57:40;10.77;;;9.50;;
18280;SDS011;9266;51.132;17.062;2022-10-22T14:00:09;13.33;;;10.40;;
18280;SDS011;9266;51.132;17.062;2022-10-22T14:02:37;11.87;;;9.80;;
18280;SDS011;9266;51.132;17.062;2022-10-22T14:05:04;13.33;;;10.30;;
18280;SDS011;9266;51.132;17.062;2022-10-22T14:07:33;12.43;;;10.47;;
18280;SDS011;9266;51.132;17.062;2022-10-22T14:10:01;15.40;;;10.67;;
18280;SDS011;9266;51.132;17.062;2022-10-22T14:12:28;14.80;;;11.43;;
18280;SDS011;9266;51.132;17.062;2022-10-22T14:14:57;14.37;;;10.70;;
18280;SDS011;9266;51.132;17.062;2022-10-22T14:17:24;15.63;;;10.87;;
18280;SDS011;9266;51.132;17.062;2022-10-22T14:19:52;14.93;;;10.90;;
18280;SDS011;9266;51.132;17.062;2022-10-22T14:22:26;12.67;;;10.43;;
18280;SDS011;9266;51.132;17.062;2022-10-22T14:24:56;16.27;;;11.80;;
18280;SDS011;9266;51.132;17.062;2022-10-22T14:27:23;13.00;;;11.20;;
18280;SDS011;9266;51.132;17.062;2022-10-22T14:29:51;15.50;;;12.37;;
18280;SDS011;9266;51.132;17.062;2022-10-22T14:32:19;16.83;;;12.30;;
18280;SDS011;9266;51.132;17.062;2022-10-22T14:34:47;16.70;;;12.03;;
18280;SDS011;9266;51.132;17.062;2022-10-22T14:37:15;15.97;;;12.47;;
18280;SDS011;9266;51.132;17.062;2022-10-22T14:39:43;17.53;;;12.50;;
18280;SDS011;9266;51.132;17.062;2022-10-22T14:42:16;16.37;;;13.27;;
18280;SDS011;9266;51.132;17.062;2022-10-22T14:44:44;17.40;;;13.77;;
18280;SDS011;9266;51.132;17.062;2022-10-22T14:47:11;15.67;;;13.10;;